Time;durP1;ratioP1;P1;durP2;ratioP2;P2;SDS_P1;SDS_P2;PMS_P1;PMS_P2;Temp;Humidity;BMP_temperature;BMP_pressure;BME280_temperature;BME280_humidity;BME280_pressure;Samples;Min_cycle;Max_cycle;Signal;HPM_P1;HPM_P2
2023/12/10 00:02:00;;;;;;;7.07;4.75;;;;;;;24.88;34.53;98618.09;4987792;28;20426;-44
2023/12/10 00:04:26;;;;;;;7.00;4.60;;;;;;;24.87;34.51;98627.63;4990825;28;20031;-45
2023/12/10 00:06:51;;;;;;;6.88;4.53;;;;;;;24.88;34.69;98640.91;4990016;28;20022;-44
2023/12/10 00:09:17;;;;;;;6.90;4.40;;;;;;;24.88;34.52;98632.63;4997113;28;20425;-45
2023/12/10 00:11:42;;;;;;;6.40;4.28;;;;;;;24.88;34.86;98629.88;4990871;28;20030;-46
2023/12/10 00:14:08;;;;;;;6.25;4.28;;;;;;;24.88;34.75;98631.88;4986496;28;20072;-45
2023/12/10 00:16:33;;;;;;;7.00;4.43;;;;;;;24.88;34.62;98634.63;4991939;28;20401;-47
2023/12/10 00:18:58;;;;;;;6.60;4.15;;;;;;;24.89;34.66;98628.59;4993534;28;20028;-44
2023/12/10 00:21:24;;;;;;;6.45;3.75;;;;;;;24.88;34.63;98640.91;4993945;28;20026;-46
2023/12/10 00:23:49;;;;;;;6.60;4.13;;;;;;;24.88;34.62;98657.47;4996707;28;20045;-45
2023/12/10 00:26:15;;;;;;;6.53;4.07;;;;;;;24.87;34.69;98647.69;4988332;28;20079;-44
2023/12/10 00:28:40;;;;;;;6.40;3.90;;;;;;;24.88;34.60;98659.47;4991895;28;20414;-44
2023/12/10 00:31:07;;;;;;;6.55;3.97;;;;;;;24.90;34.66;98665.25;4994053;28;20022;-45
2023/12/10 00:33:33;;;;;;;6.10;3.60;;;;;;;24.90;34.62;98668.00;4999167;28;20121;-45
2023/12/10 00:35:59;;;;;;;6.15;3.80;;;;;;;24.86;34.50;98679.31;4995611;28;20046;-45
2023/12/10 00:38:24;;;;;;;6.18;3.63;;;;;;;24.87;34.71;98689.09;4984075;28;20026;-44
2023/12/10 00:40:49;;;;;;;6.53;3.60;;;;;;;24.89;34.53;98683.81;4993058;28;20029;-45
2023/12/10 00:43:16;;;;;;;6.10;3.60;;;;;;;24.88;34.58;98690.59;4992088;28;20038;-45
2023/12/10 00:45:42;;;;;;;6.15;3.97;;;;;;;24.84;34.72;98697.66;4992947;28;20030;-44
2023/12/10 00:48:07;;;;;;;5.78;3.28;;;;;;;24.87;34.67;98713.94;4987097;28;20056;-45
2023/12/10 00:50:32;;;;;;;5.90;3.63;;;;;;;24.85;34.77;98713.69;4985863;28;20068;-45
2023/12/10 00:52:58;;;;;;;5.57;3.35;;;;;;;24.81;34.86;98724.28;4995343;28;20029;-46
2023/12/10 00:55:23;;;;;;;6.65;3.72;;;;;;;24.87;34.66;98716.69;4993197;28;20091;-44
2023/12/10 00:57:48;;;;;;;5.72;3.28;;;;;;;24.83;34.68;98710.69;4990358;28;20034;-44
2023/12/10 01:00:14;;;;;;;5.18;3.08;;;;;;;24.83;34.65;98704.44;4985948;28;20038;-44
2023/12/10 01:02:39;;;;;;;5.40;3.13;;;;;;;24.84;34.64;98717.72;4985555;28;20042;-45
2023/12/10 01:05:05;;;;;;;5.93;3.33;;;;;;;24.82;34.69;98723.00;4989068;28;20064;-46
2023/12/10 01:07:31;;;;;;;6.00;3.08;;;;;;;24.82;34.58;98725.75;4991648;28;20053;-47
2023/12/10 01:09:56;;;;;;;5.35;2.92;;;;;;;24.79;34.63;98737.84;4992821;28;20057;-46
2023/12/10 01:12:21;;;;;;;5.90;3.08;;;;;;;24.82;34.75;98750.59;4982846;28;20030;-49
2023/12/10 01:14:47;;;;;;;5.32;2.90;;;;;;;24.84;34.55;98753.59;4986901;28;20026;-44
2023/12/10 01:17:12;;;;;;;5.80;3.15;;;;;;;24.81;34.69;98746.34;4988351;28;20038;-46
2023/12/10 01:19:38;;;;;;;5.47;3.15;;;;;;;24.81;34.59;98735.31;4989333;28;20411;-45
2023/12/10 01:22:03;;;;;;;6.15;3.10;;;;;;;24.77;34.62;98726.59;4994635;28;20457;-45
2023/12/10 01:24:29;;;;;;;5.50;3.10;;;;;;;24.78;34.73;98727.31;4989647;28;20057;-45
2023/12/10 01:26:54;;;;;;;5.38;2.60;;;;;;;24.80;34.80;98744.09;4987181;28;20022;-44
2023/12/10 01:29:20;;;;;;;5.70;3.03;;;;;;;24.80;34.57;98753.13;4988429;28;20657;-46
2023/12/10 01:31:46;;;;;;;5.22;2.72;;;;;;;24.82;34.54;98758.88;4992556;28;20034;-44
2023/12/10 01:34:11;;;;;;;4.85;2.60;;;;;;;24.77;34.61;98770.75;4991677;28;20026;-43
2023/12/10 01:36:36;;;;;;;5.35;2.80;;;;;;;24.81;34.46;98781.47;4991903;28;20084;-44
2023/12/10 01:39:03;;;;;;;5.85;3.00;;;;;;;24.80;34.48;98788.25;4987632;28;20026;-45
2023/12/10 01:41:28;;;;;;;4.90;2.60;;;;;;;24.77;34.69;98809.38;4986876;28;20136;-44
2023/12/10 01:43:54;;;;;;;5.47;2.78;;;;;;;24.79;34.63;98815.09;4995990;28;20474;-44
2023/12/10 01:46:21;;;;;;;7.20;2.83;;;;;;;24.77;34.61;98816.91;4997507;28;20117;-44
2023/12/10 01:48:46;;;;;;;5.45;2.70;;;;;;;24.77;34.48;98814.16;4995381;28;20481;-44
2023/12/10 01:51:12;;;;;;;5.68;2.67;;;;;;;24.77;34.57;98827.94;4991016;28;20041;-44
2023/12/10 01:53:38;;;;;;;5.07;2.70;;;;;;;24.77;34.71;98827.94;4991337;28;20533;-45
2023/12/10 01:56:05;;;;;;;4.93;2.38;;;;;;;24.76;34.58;98826.44;4995190;28;20077;-44
2023/12/10 01:58:30;;;;;;;5.20;2.60;;;;;;;24.75;34.59;98825.69;4997053;28;20035;-44
2023/12/10 02:00:56;;;;;;;5.72;2.72;;;;;;;24.76;34.83;98829.94;5001723;28;20040;-44
2023/12/10 02:03:21;;;;;;;5.45;2.38;;;;;;;24.77;34.61;98825.94;4990915;28;20962;-44
2023/12/10 02:05:46;;;;;;;4.95;2.40;;;;;;;24.76;34.56;98827.19;4996425;28;20042;-44
2023/12/10 02:08:12;;;;;;;5.18;2.35;;;;;;;24.74;34.56;98826.94;4994058;28;20440;-45
2023/12/10 02:10:37;;;;;;;5.10;2.45;;;;;;;24.73;34.46;98826.19;4991419;28;20023;-45
2023/12/10 02:13:04;;;;;;;5.20;2.50;;;;;;;24.75;34.76;98824.94;4993701;28;20030;-44
2023/12/10 02:15:30;;;;;;;4.75;2.40;;;;;;;24.75;34.45;98838.75;4993451;28;20081;-46
2023/12/10 02:17:55;;;;;;;4.97;2.20;;;;;;;24.75;34.62;98839.50;4992524;28;20029;-44
2023/12/10 02:20:21;;;;;;;5.03;2.38;;;;;;;24.71;34.65;98841.78;4996250;28;20041;-44
2023/12/10 02:22:53;;;;;;;4.57;2.08;;;;;;;24.73;34.52;98855.81;4996167;28;20111;-44
2023/12/10 02:25:21;;;;;;;4.55;2.13;;;;;;;24.74;34.59;98857.31;4992130;28;20038;-45
2023/12/10 02:27:47;;;;;;;4.80;2.30;;;;;;;24.72;34.77;98865.34;4978147;28;20034;-44
2023/12/10 02:30:13;;;;;;;5.03;2.20;;;;;;;24.73;34.56;98875.13;4987601;28;20036;-45
2023/12/10 02:32:38;;;;;;;4.70;2.00;;;;;;;24.73;34.53;98880.66;4992149;28;20117;-44
2023/12/10 02:35:04;;;;;;;4.50;2.03;;;;;;;24.72;34.60;98884.66;4994250;28;20031;-43
2023/12/10 02:37:30;;;;;;;4.78;2.05;;;;;;;24.72;34.70;98890.19;4991157;28;20053;-44
2023/12/10 02:39:56;;;;;;;4.22;2.10;;;;;;;24.75;34.42;98899.47;4992448;28;20385;-44
2023/12/10 02:42:21;;;;;;;5.22;2.00;;;;;;;24.73;34.53;98899.97;4987398;28;20045;-44
2023/12/10 02:44:46;;;;;;;5.30;1.90;;;;;;;24.75;34.43;98904.97;4993800;28;20027;-44
2023/12/10 02:47:12;;;;;;;4.78;2.15;;;;;;;24.73;34.52;98906.22;4996351;28;20027;-46
2023/12/10 02:49:37;;;;;;;4.85;1.95;;;;;;;24.75;34.42;98914.00;4999537;28;20494;-44
2023/12/10 02:52:03;;;;;;;4.47;2.00;;;;;;;24.72;34.64;98924.06;4991018;28;20028;-44
2023/12/10 02:54:28;;;;;;;4.35;2.03;;;;;;;24.75;34.49;98938.09;4992366;28;20066;-44
2023/12/10 02:56:53;;;;;;;3.50;1.67;;;;;;;24.72;34.55;98931.56;4995042;28;20054;-44
2023/12/10 02:59:19;;;;;;;4.57;1.92;;;;;;;24.72;34.51;98937.84;4997341;28;20075;-44
2023/12/10 03:01:44;;;;;;;4.93;2.00;;;;;;;24.74;34.43;98940.09;4995134;28;20035;-45
2023/12/10 03:04:09;;;;;;;4.53;1.92;;;;;;;24.74;34.38;98940.09;4993877;28;20022;-44
2023/12/10 03:06:35;;;;;;;5.32;2.25;;;;;;;24.74;34.32;98945.63;4986074;28;20022;-44
2023/12/10 03:09:00;;;;;;;4.43;1.90;;;;;;;24.72;34.57;98956.41;4991401;28;20040;-44
2023/12/10 03:11:25;;;;;;;4.15;1.98;;;;;;;24.72;34.53;98946.13;4996871;28;20543;-44
2023/12/10 03:13:51;;;;;;;4.35;1.80;;;;;;;24.73;34.27;98936.59;4999058;28;20042;-44
2023/12/10 03:16:16;;;;;;;4.60;2.00;;;;;;;24.72;34.44;98935.09;4995571;28;20030;-46
2023/12/10 03:18:41;;;;;;;4.65;2.00;;;;;;;24.73;34.63;98941.34;4993276;28;20044;-44
2023/12/10 03:21:07;;;;;;;4.35;2.00;;;;;;;24.73;34.45;98949.63;4996534;28;20485;-46
2023/12/10 03:23:32;;;;;;;4.90;1.80;;;;;;;24.75;34.42;98943.59;4986957;28;20049;-44
2023/12/10 03:25:57;;;;;;;4.13;1.80;;;;;;;24.72;34.52;98940.59;4991372;28;20026;-44
2023/12/10 03:28:23;;;;;;;4.38;1.80;;;;;;;24.74;34.49;98945.63;4987861;28;20080;-44
2023/12/10 03:30:48;;;;;;;3.92;1.90;;;;;;;24.75;34.40;98940.84;4986201;28;20026;-45
2023/12/10 03:33:13;;;;;;;4.65;1.80;;;;;;;24.75;34.56;98944.38;4993211;28;20400;-45
2023/12/10 03:35:39;;;;;;;3.33;1.45;;;;;;;24.73;34.48;98946.88;4997815;28;20087;-45
2023/12/10 03:38:04;;;;;;;4.35;1.80;;;;;;;24.74;34.54;98962.19;4990211;28;20040;-44
2023/12/10 03:40:30;;;;;;;4.10;1.80;;;;;;;24.73;34.30;98966.94;4988693;28;20485;-45
2023/12/10 03:42:57;;;;;;;3.72;1.52;;;;;;;24.74;34.38;98967.69;4989741;28;20039;-44
2023/12/10 03:45:22;;;;;;;4.20;1.65;;;;;;;24.76;34.55;98967.19;4987044;28;20490;-44
2023/12/10 03:47:48;;;;;;;3.90;1.70;;;;;;;24.75;34.59;98974.72;4993443;28;20033;-45
2023/12/10 03:50:13;;;;;;;4.13;1.98;;;;;;;24.77;34.29;98972.22;4993298;28;20494;-43
2023/12/10 03:52:39;;;;;;;4.30;1.70;;;;;;;24.73;34.47;98989.03;4992198;28;20030;-45
2023/12/10 03:55:05;;;;;;;4.47;1.80;;;;;;;24.76;34.36;98989.28;4986027;28;20095;-45
2023/12/10 03:57:30;;;;;;;3.97;1.65;;;;;;;24.75;34.36;98991.28;4980422;28;20022;-46
2023/12/10 03:59:56;;;;;;;4.13;1.80;;;;;;;24.76;34.37;99006.59;4988895;28;20041;-45
2023/12/10 04:02:21;;;;;;;4.10;1.60;;;;;;;24.77;34.37;99010.84;4993062;28;20030;-46
2023/12/10 04:04:46;;;;;;;3.60;1.70;;;;;;;24.75;34.38;99018.13;4994880;28;20030;-44
2023/12/10 04:07:12;;;;;;;4.05;1.63;;;;;;;24.73;34.44;99021.41;4991992;28;20068;-44
2023/12/10 04:09:37;;;;;;;4.47;1.65;;;;;;;24.73;34.39;99029.66;4987476;28;20377;-44
2023/12/10 04:12:05;;;;;;;4.15;1.52;;;;;;;24.76;34.37;99036.94;4986800;28;20084;-44
2023/12/10 04:14:30;;;;;;;;;;;;;;;24.75;34.37;99029.91;4990539;28;20113;-44
2023/12/10 04:16:55;;;;;;;4.60;1.80;;;;;;;24.72;34.61;99028.16;4994133;28;20053;-45
2023/12/10 04:19:21;;;;;;;4.05;1.60;;;;;;;24.75;34.38;99029.16;4991788;28;20038;-45
2023/12/10 04:21:46;;;;;;;3.80;1.60;;;;;;;24.73;34.50;99037.94;4988492;28;20025;-44
2023/12/10 04:24:11;;;;;;;3.70;1.58;;;;;;;24.74;34.59;99028.41;4991473;28;20025;-44
2023/12/10 04:26:37;;;;;;;4.13;1.60;;;;;;;24.73;34.39;99033.19;4991726;28;20022;-44
2023/12/10 04:29:02;;;;;;;4.20;1.70;;;;;;;24.75;34.40;99034.69;4993663;28;20022;-45
2023/12/10 04:31:27;;;;;;;3.90;1.50;;;;;;;24.75;34.26;99037.44;4988580;28;20077;-44
2023/12/10 04:33:53;;;;;;;3.15;1.42;;;;;;;24.74;34.34;99050.50;4990057;28;20034;-43
2023/12/10 04:36:18;;;;;;;3.88;1.50;;;;;;;24.74;34.45;99050.50;4991911;28;20034;-44
2023/12/10 04:38:43;;;;;;;3.70;1.50;;;;;;;24.75;34.46;99051.25;4988671;28;20409;-44
2023/12/10 04:41:09;;;;;;;3.55;1.30;;;;;;;24.73;34.49;99049.75;4997576;28;20552;-45
2023/12/10 04:43:34;;;;;;;3.33;1.40;;;;;;;24.76;34.32;99042.47;4992983;28;20029;-46
2023/12/10 04:45:59;;;;;;;3.90;1.50;;;;;;;24.76;34.31;99045.22;4994559;28;20025;-45
2023/12/10 04:48:25;;;;;;;3.50;1.52;;;;;;;24.76;34.37;99059.03;4990400;28;20068;-45
2023/12/10 04:50:50;;;;;;;3.35;1.50;;;;;;;24.77;34.27;99059.78;4990549;28;20393;-44
2023/12/10 04:53:16;;;;;;;4.05;1.42;;;;;;;24.79;34.48;99046.19;4987641;28;20024;-46
2023/12/10 04:55:42;;;;;;;3.40;1.45;;;;;;;24.77;34.25;99060.53;4988244;28;20030;-44
2023/12/10 04:58:08;;;;;;;3.78;1.50;;;;;;;24.75;34.51;99059.53;4988291;28;20026;-45
2023/12/10 05:00:33;;;;;;;3.35;1.30;;;;;;;24.77;34.32;99059.78;4987301;28;20092;-44
2023/12/10 05:02:58;;;;;;;4.05;1.38;;;;;;;24.75;34.21;99063.03;4990091;28;20022;-44
2023/12/10 05:05:24;;;;;;;4.35;1.40;;;;;;;24.75;34.30;99065.03;4992397;28;20022;-44
2023/12/10 05:07:49;;;;;;;3.72;1.45;;;;;;;24.77;34.31;99060.53;4987058;28;20544;-44
2023/12/10 05:10:14;;;;;;;3.17;1.40;;;;;;;24.76;34.27;99064.53;4987257;28;20026;-45
2023/12/10 05:12:40;;;;;;;2.90;1.27;;;;;;;24.79;34.29;99063.50;4986271;28;20029;-46
2023/12/10 05:15:05;;;;;;;2.72;1.27;;;;;;;24.75;34.44;99071.31;4989738;28;20026;-44
2023/12/10 05:17:31;;;;;;;3.17;1.30;;;;;;;24.75;34.36;99063.03;4994745;28;20030;-44
2023/12/10 05:19:56;;;;;;;3.08;1.20;;;;;;;24.75;34.43;99068.56;4989675;28;20076;-44
2023/12/10 05:22:23;;;;;;;3.40;1.30;;;;;;;24.70;34.41;99064.53;4989153;28;20028;-45
2023/12/10 05:24:48;;;;;;;3.88;1.40;;;;;;;24.67;34.29;99062.03;4989006;28;20046;-44
2023/12/10 05:27:13;;;;;;;3.45;1.30;;;;;;;24.65;34.35;99061.78;4989193;28;20019;-44
2023/12/10 05:29:39;;;;;;;4.32;1.52;;;;;;;24.61;34.32;99069.56;4993817;28;20037;-44
2023/12/10 05:32:04;;;;;;;4.35;1.40;;;;;;;24.59;34.38;99077.59;4990787;28;20109;-44
2023/12/10 05:34:30;;;;;;;3.30;1.40;;;;;;;24.61;34.37;99091.66;4994115;28;20031;-44
2023/12/10 05:36:55;;;;;;;3.45;1.35;;;;;;;24.57;34.34;99088.41;4988506;28;20023;-46
2023/12/10 05:39:21;;;;;;;4.38;1.33;;;;;;;24.59;34.42;99094.16;4991563;28;20029;-44
2023/12/10 05:41:46;;;;;;;3.85;1.50;;;;;;;24.55;34.33;99082.66;4992027;28;20037;-45
2023/12/10 05:44:11;;;;;;;4.13;1.60;;;;;;;24.55;34.34;99090.91;4993449;28;20033;-44
2023/12/10 05:46:37;;;;;;;3.85;1.40;;;;;;;24.56;34.61;99098.69;4997115;28;20025;-44
2023/12/10 05:49:03;;;;;;;5.32;1.58;;;;;;;24.57;34.21;99102.22;4988137;28;20036;-44
2023/12/10 05:51:28;;;;;;;4.32;1.38;;;;;;;24.57;34.34;99107.72;4986192;28;20049;-45
2023/12/10 05:53:54;;;;;;;3.38;1.33;;;;;;;24.59;34.31;99107.94;4988895;28;20474;-44
2023/12/10 05:56:19;;;;;;;5.15;1.50;;;;;;;24.55;34.51;99116.50;4988213;28;20084;-45
2023/12/10 05:58:44;;;;;;;7.10;1.30;;;;;;;24.56;34.53;99114.50;4986936;28;20053;-46
2023/12/10 06:01:10;;;;;;;4.75;1.70;;;;;;;24.56;34.56;99126.28;4986575;28;20057;-45
2023/12/10 06:03:35;;;;;;;3.55;1.45;;;;;;;24.58;34.57;99128.53;4987807;28;20022;-45
2023/12/10 06:06:00;;;;;;;5.00;1.50;;;;;;;24.60;34.63;99139.81;4994652;28;20377;-45
2023/12/10 06:08:26;;;;;;;5.40;1.50;;;;;;;24.55;34.64;99135.81;4991155;28;20022;-44
2023/12/10 06:10:51;;;;;;;4.65;1.30;;;;;;;24.52;34.63;99142.34;4986082;28;20389;-45
2023/12/10 06:13:17;;;;;;;5.00;1.50;;;;;;;24.50;34.63;99146.84;4982953;28;20046;-45
2023/12/10 06:15:43;;;;;;;10.90;1.90;;;;;;;24.49;34.62;99148.84;4983188;28;20031;-47
2023/12/10 06:18:08;;;;;;;6.30;1.45;;;;;;;24.52;34.53;99158.13;4992879;28;20026;-45
2023/12/10 06:20:34;;;;;;;3.95;1.48;;;;;;;24.50;34.67;99168.91;4991586;28;20018;-44
2023/12/10 06:22:59;;;;;;;4.10;1.60;;;;;;;24.47;34.62;99169.91;4989255;28;20042;-46
2023/12/10 06:25:25;;;;;;;4.25;1.30;;;;;;;24.49;34.57;99173.69;4981475;28;20470;-44
2023/12/10 06:27:50;;;;;;;4.97;1.40;;;;;;;24.52;34.42;99188.50;4986137;28;20033;-44
2023/12/10 06:30:15;;;;;;;4.55;1.48;;;;;;;24.46;34.51;99185.72;4998918;28;20022;-45
2023/12/10 06:32:41;;;;;;;5.68;1.27;;;;;;;24.50;34.38;99191.00;4996597;28;20533;-45
2023/12/10 06:35:07;;;;;;;4.32;1.25;;;;;;;24.52;34.21;99194.00;4992737;28;20031;-45
2023/12/10 06:37:32;;;;;;;4.15;1.42;;;;;;;24.53;34.07;99201.03;4989117;28;20023;-45
2023/12/10 06:39:58;;;;;;;4.65;1.58;;;;;;;24.56;34.04;99205.56;4984280;28;20026;-44
2023/12/10 06:42:23;;;;;;;4.15;1.48;;;;;;;24.55;33.94;99220.59;4991827;28;20034;-43
2023/12/10 06:44:48;;;;;;;6.43;1.70;;;;;;;24.46;34.10;99218.81;4991969;28;22849;-45
2023/12/10 06:47:14;;;;;;;5.38;1.50;;;;;;;24.44;34.38;99204.03;4993421;28;20018;-44
2023/12/10 06:49:40;;;;;;;5.40;1.60;;;;;;;24.51;34.43;99218.09;4991399;28;20037;-42
2023/12/10 06:52:05;;;;;;;4.82;1.70;;;;;;;24.53;34.62;99217.59;4989054;28;20042;-42
2023/12/10 06:54:31;;;;;;;7.30;1.60;;;;;;;24.56;34.58;99216.59;4992698;28;20029;-42
2023/12/10 06:56:56;;;;;;;6.90;1.50;;;;;;;24.56;34.61;99222.09;4987777;28;20026;-44
2023/12/10 06:59:21;;;;;;;7.75;1.70;;;;;;;24.64;34.47;99221.09;4993703;28;20029;-39
2023/12/10 07:01:47;;;;;;;4.65;1.48;;;;;;;24.61;34.57;99213.06;4994728;28;20469;-43
2023/12/10 07:04:13;;;;;;;8.20;1.60;;;;;;;24.64;34.54;99207.28;4989132;28;20015;-46
2023/12/10 07:06:38;;;;;;;6.53;1.77;;;;;;;24.66;34.54;99204.03;4993843;28;20057;-42
2023/12/10 07:09:06;;;;;;;7.55;1.55;;;;;;;24.69;34.53;99208.56;4992654;28;20018;-44
2023/12/10 07:11:32;;;;;;;4.65;1.48;;;;;;;24.70;34.49;99212.81;4998597;28;20089;-42
2023/12/10 07:13:57;;;;;;;5.18;1.60;;;;;;;24.71;34.50;99214.31;4992050;28;20113;-44
2023/12/10 07:16:22;;;;;;;5.65;1.52;;;;;;;24.75;34.37;99219.59;4986688;28;20389;-48
2023/12/10 07:18:48;;;;;;;5.85;1.70;;;;;;;24.78;34.54;99216.56;4996161;28;20023;-47
2023/12/10 07:21:13;;;;;;;4.18;1.40;;;;;;;24.80;34.50;99224.34;4995264;28;20021;-46
2023/12/10 07:23:39;;;;;;;4.78;1.52;;;;;;;24.81;34.54;99223.09;4995700;28;20396;-44
2023/12/10 07:26:04;;;;;;;5.35;1.90;;;;;;;24.81;34.34;99232.13;4999978;28;20016;-40
2023/12/10 07:28:30;;;;;;;5.65;1.60;;;;;;;24.83;34.15;99229.63;4992316;28;20026;-41
2023/12/10 07:30:55;;;;;;;4.53;1.55;;;;;;;24.85;34.20;99235.41;4989499;28;20029;-43
2023/12/10 07:33:21;;;;;;;5.75;1.60;;;;;;;24.81;34.31;99237.66;4992313;28;20453;-44
2023/12/10 07:35:46;;;;;;;4.65;1.50;;;;;;;24.86;33.93;99242.41;4988483;28;20590;-40
2023/12/10 07:38:12;;;;;;;5.60;1.80;;;;;;;24.93;33.71;99246.69;4998495;28;20033;-42
2023/12/10 07:40:37;;;;;;;5.72;1.60;;;;;;;24.94;33.84;99243.47;4986442;28;20617;-44
2023/12/10 07:43:03;;;;;;;4.40;1.50;;;;;;;24.94;33.82;99246.22;4989967;28;20026;-41
2023/12/10 07:45:28;;;;;;;4.20;1.60;;;;;;;24.92;33.68;99251.47;4995302;28;20480;-42
2023/12/10 07:47:53;;;;;;;15.77;1.58;;;;;;;24.94;33.88;99251.75;4993146;28;20030;-42
2023/12/10 07:50:19;;;;;;;5.22;1.73;;;;;;;24.96;33.84;99252.00;4993776;28;20672;-41
2023/12/10 07:52:44;;;;;;;6.22;1.80;;;;;;;24.97;33.73;99250.00;4986661;28;20108;-43
2023/12/10 07:55:09;;;;;;;5.72;1.92;;;;;;;24.95;33.71;99250.50;4989530;28;20035;-42
2023/12/10 07:57:35;;;;;;;5.03;1.60;;;;;;;24.96;33.84;99265.06;4996740;28;20022;-45
2023/12/10 08:00:00;;;;;;;6.00;1.63;;;;;;;24.96;34.03;99259.53;4994147;28;20044;-46
2023/12/10 08:02:26;;;;;;;3.90;1.50;;;;;;;25.02;33.94;99258.25;4990222;28;20520;-43
2023/12/10 08:04:51;;;;;;;5.20;1.60;;;;;;;24.98;34.03;99260.50;4985461;28;20034;-42
2023/12/10 08:07:16;;;;;;;5.63;1.70;;;;;;;25.00;33.75;99271.03;4985300;28;20087;-43
2023/12/10 08:09:42;;;;;;;4.63;1.60;;;;;;;25.00;33.83;99271.81;4992948;28;20045;-42
2023/12/10 08:12:07;;;;;;;5.43;1.50;;;;;;;25.03;33.91;99267.28;4995253;28;20022;-42
2023/12/10 08:14:33;;;;;;;7.50;1.80;;;;;;;25.01;33.88;99286.38;4997632;28;20440;-42
2023/12/10 08:16:58;;;;;;;4.43;1.60;;;;;;;24.96;33.83;99276.84;4990252;28;20092;-43
2023/12/10 08:19:24;;;;;;;6.18;1.65;;;;;;;24.97;33.41;99278.34;4990711;28;20096;-42
2023/12/10 08:21:49;;;;;;;7.22;1.50;;;;;;;24.95;33.52;99286.38;4993154;28;20416;-41
2023/12/10 08:24:15;;;;;;;9.80;1.80;;;;;;;25.06;33.77;99293.91;4986819;28;20021;-41
2023/12/10 08:26:40;;;;;;;7.93;1.65;;;;;;;24.98;33.72;99290.88;4987046;28;20018;-41
2023/12/10 08:29:05;;;;;;;8.15;1.75;;;;;;;24.95;33.61;99285.63;4985667;28;20026;-41
2023/12/10 08:31:31;;;;;;;9.10;1.85;;;;;;;24.90;33.54;99289.84;4990042;28;20030;-40
2023/12/10 08:33:56;;;;;;;4.45;1.50;;;;;;;24.93;33.34;99283.34;4986785;28;20482;-42
2023/12/10 08:36:21;;;;;;;6.03;1.60;;;;;;;24.87;33.42;99290.84;4993717;28;20021;-41
2023/12/10 08:38:47;;;;;;;5.38;1.60;;;;;;;24.85;33.85;99282.31;4991144;28;20088;-41
2023/12/10 08:41:12;;;;;;;4.72;1.50;;;;;;;24.84;33.56;99278.06;4986646;28;20027;-41
2023/12/10 08:43:38;;;;;;;4.68;1.65;;;;;;;24.85;33.45;99282.31;4986297;28;20041;-42
2023/12/10 08:46:04;;;;;;;5.32;1.50;;;;;;;24.84;33.53;99285.59;4996693;28;20465;-41
2023/12/10 08:48:30;;;;;;;5.03;1.55;;;;;;;24.85;33.47;99287.84;4987680;28;20076;-41
2023/12/10 08:50:56;;;;;;;6.00;1.60;;;;;;;24.77;33.35;99295.13;4986996;28;20030;-41
2023/12/10 08:53:21;;;;;;;5.93;1.50;;;;;;;24.66;33.27;99293.09;4987786;28;20022;-41
2023/12/10 08:55:48;;;;;;;5.75;1.80;;;;;;;24.59;32.99;99293.56;4990559;28;20022;-41
2023/12/10 08:58:14;;;;;;;5.43;1.90;;;;;;;24.52;32.79;99305.13;4988552;28;20026;-41
2023/12/10 09:00:39;;;;;;;4.80;1.58;;;;;;;24.54;32.44;99312.91;4987348;28;20121;-41
2023/12/10 09:03:04;;;;;;;5.95;1.85;;;;;;;24.48;32.54;99323.16;4990557;28;20022;-42
2023/12/10 09:05:31;;;;;;;5.57;1.80;;;;;;;24.42;32.37;99322.38;4988123;28;20023;-41
2023/12/10 09:07:57;;;;;;;6.32;1.83;;;;;;;24.29;32.41;99325.63;4982940;28;20021;-41
2023/12/10 09:10:22;;;;;;;6.05;1.90;;;;;;;24.26;32.48;99330.13;4991352;28;20034;-41
2023/12/10 09:12:47;;;;;;;5.75;2.17;;;;;;;24.25;32.41;99328.59;4990601;28;20037;-41
2023/12/10 09:15:13;;;;;;;5.88;1.83;;;;;;;24.28;32.57;99324.84;4995088;28;20022;-41
2023/12/10 09:17:38;;;;;;;5.90;1.90;;;;;;;24.26;32.74;99326.59;4986329;28;20031;-41
2023/12/10 09:20:04;;;;;;;4.85;1.80;;;;;;;24.35;33.20;99338.19;4985965;28;20035;-43
2023/12/10 09:22:29;;;;;;;9.38;2.42;;;;;;;24.36;32.89;99344.47;4984987;28;20068;-43
2023/12/10 09:24:55;;;;;;;7.80;1.95;;;;;;;24.29;32.26;99342.16;4988919;28;20034;-43
2023/12/10 09:27:20;;;;;;;8.10;2.08;;;;;;;24.22;32.47;99348.88;4993508;28;20027;-42
2023/12/10 09:29:46;;;;;;;5.10;2.05;;;;;;;24.18;32.32;99362.13;4993175;28;20033;-43
2023/12/10 09:32:12;;;;;;;6.50;1.88;;;;;;;24.21;32.26;99360.38;4985998;28;20403;-42
2023/12/10 09:34:39;;;;;;;5.18;1.70;;;;;;;24.12;32.28;99355.84;4987671;28;20663;-43
2023/12/10 09:37:04;;;;;;;4.57;1.80;;;;;;;24.15;32.62;99370.66;4991709;28;20088;-43
2023/12/10 09:39:31;;;;;;;9.68;2.28;;;;;;;24.23;32.34;99371.69;4993079;28;20273;-42
2023/12/10 09:41:56;;;;;;;7.20;2.15;;;;;;;24.19;32.77;99360.88;4991796;28;20041;-45
2023/12/10 09:44:22;;;;;;;7.85;2.22;;;;;;;24.21;32.42;99361.16;4990127;28;20448;-43
2023/12/10 09:46:47;;;;;;;8.52;2.08;;;;;;;24.24;32.50;99351.91;4989038;28;20022;-45
2023/12/10 09:49:15;;;;;;;5.50;2.17;;;;;;;24.30;33.04;99347.19;4988733;28;20030;-43
2023/12/10 09:51:41;;;;;;;6.32;2.17;;;;;;;24.28;33.17;99338.66;4993033;28;20029;-43
2023/12/10 09:54:07;;;;;;;6.40;1.90;;;;;;;24.29;33.25;99331.13;4995150;28;20037;-47
2023/12/10 09:56:32;;;;;;;7.10;2.13;;;;;;;24.31;32.89;99348.69;4986969;28;20057;-42
2023/12/10 09:58:57;;;;;;;7.80;2.30;;;;;;;24.31;33.11;99337.66;4990272;28;20068;-42
2023/12/10 10:01:23;;;;;;;5.60;1.95;;;;;;;24.33;32.60;99334.41;4991670;28;20834;-42
2023/12/10 10:03:49;;;;;;;7.35;2.10;;;;;;;24.32;32.55;99336.41;4994714;28;20040;-43
2023/12/10 10:06:15;;;;;;;7.18;2.20;;;;;;;24.31;32.51;99339.66;4993159;28;20027;-45
2023/12/10 10:08:40;;;;;;;7.72;2.08;;;;;;;24.25;33.04;99345.16;4995348;28;20022;-43
2023/12/10 10:11:05;;;;;;;11.43;2.85;;;;;;;24.33;32.46;99339.94;4992392;28;20041;-42
2023/12/10 10:13:31;;;;;;;6.88;2.15;;;;;;;24.25;32.41;99336.88;4998190;28;20526;-42
2023/12/10 10:15:56;;;;;;;9.10;2.45;;;;;;;24.10;32.47;99336.28;4993761;28;20336;-42
2023/12/10 10:18:22;;;;;;;10.02;2.67;;;;;;;24.10;32.40;99325.25;4992176;28;20034;-47
2023/12/10 10:20:48;;;;;;;7.35;2.50;;;;;;;24.28;32.35;99319.34;4988505;28;20027;-45
2023/12/10 10:23:14;;;;;;;7.43;2.38;;;;;;;24.19;31.99;99313.25;4991787;28;20117;-42
2023/12/10 10:25:40;;;;;;;7.40;2.38;;;;;;;24.17;32.27;99318.53;4996323;28;20038;-43
2023/12/10 10:28:09;;;;;;;7.85;2.53;;;;;;;24.17;32.20;99329.56;4994503;28;20018;-39
2023/12/10 10:30:34;;;;;;;6.68;2.22;;;;;;;24.16;31.83;99328.81;4993328;28;20477;-40
2023/12/10 10:32:59;;;;;;;6.88;2.38;;;;;;;24.26;32.18;99337.63;4993795;28;20018;-43
2023/12/10 10:35:25;;;;;;;7.03;2.40;;;;;;;24.18;32.05;99326.28;4990178;28;20382;-42
2023/12/10 10:37:50;;;;;;;7.60;2.40;;;;;;;24.23;31.72;99317.28;4994532;28;20029;-44
2023/12/10 10:40:16;;;;;;;6.30;2.13;;;;;;;24.16;31.63;99315.03;4992836;28;20048;-42
2023/12/10 10:42:43;;;;;;;6.00;2.42;;;;;;;24.08;31.76;99330.53;4999898;28;20033;-43
2023/12/10 10:45:08;;;;;;;6.55;2.22;;;;;;;24.02;31.59;99324.22;4993691;28;20113;-38
2023/12/10 10:47:34;;;;;;;5.70;2.13;;;;;;;24.15;31.64;99321.03;4989436;28;20560;-46
2023/12/10 10:50:00;;;;;;;8.73;2.50;;;;;;;24.21;31.55;99317.03;4989682;28;20085;-47
2023/12/10 10:52:26;;;;;;;6.38;2.30;;;;;;;24.22;31.87;99310.25;4986376;28;20161;-46
2023/12/10 10:54:55;;;;;;;5.90;2.60;;;;;;;24.27;31.59;99312.31;4994227;28;20027;-43
2023/12/10 10:57:30;;;;;;;6.53;2.70;;;;;;;24.33;31.68;99315.84;4969243;28;20030;-44
2023/12/10 10:59:56;;;;;;;6.53;2.70;;;;;;;24.38;31.85;99312.34;4986335;28;20395;-49
2023/12/10 11:02:22;;;;;;;6.18;2.53;;;;;;;24.47;32.18;99316.88;4997367;28;20077;-45
2023/12/10 11:04:48;;;;;;;6.18;2.30;;;;;;;24.46;31.94;99300.84;4991289;28;20030;-44
2023/12/10 11:07:14;;;;;;;5.78;2.40;;;;;;;24.52;31.94;99287.81;4988999;28;20031;-45
2023/12/10 11:09:59;;;;;;;6.57;2.33;;;;;;;24.55;31.83;99287.56;4992044;28;20030;-44
2023/12/10 11:12:44;;;;;;;5.80;2.42;;;;;;;24.58;31.71;99280.31;4987679;28;20097;-44
2023/12/10 11:15:16;;;;;;;6.63;2.55;;;;;;;24.60;31.66;99289.56;4993293;28;20500;-44
2023/12/10 11:18:05;;;;;;;7.03;2.50;;;;;;;24.64;31.63;99284.56;4991944;28;20035;-44
2023/12/10 11:20:40;;;;;;;6.90;2.50;;;;;;;24.65;31.82;99285.31;4989579;28;20022;-45
2023/12/10 11:23:16;;;;;;;6.47;2.35;;;;;;;24.59;31.69;99271.50;4987765;28;20037;-44
2023/12/10 11:25:42;;;;;;;4.95;2.20;;;;;;;24.57;31.99;99265.00;4990346;28;20045;-44
2023/12/10 11:28:11;;;;;;;4.68;2.03;;;;;;;24.57;31.85;99254.72;4301124;28;10000471;-44